Time;durP1;ratioP1;P1;durP2;ratioP2;P2;SDS_P1;SDS_P2;PMS_P1;PMS_P2;Temp;Humidity;BMP_temperature;BMP_pressure;BME280_temperature;BME280_humidity;BME280_pressure;Samples;Min_cycle;Max_cycle;Signal;HPM_P1;HPM_P2
2022/06/03 00:00:21;;;;;;;11.00;4.80;;;;;;;9.12;100.00;102202.03;10322759;28;20070;-77
2022/06/03 00:05:54;;;;;;;11.98;5.32;;;;;;;8.81;100.00;102145.00;10338516;28;20034;-77
2022/06/03 00:11:07;;;;;;;7.18;5.00;;;;;;;9.25;100.00;102212.19;10321989;28;20042;-78
2022/06/03 00:16:10;;;;;;;11.82;5.43;;;;;;;9.13;100.00;102206.47;10335086;28;20509;-78
2022/06/03 00:21:14;;;;;;;8.05;6.30;;;;;;;9.01;100.00;102208.16;10319198;28;20114;-78
2022/06/03 00:26:40;;;;;;;14.73;6.38;;;;;;;8.91;100.00;102214.09;10300125;28;20069;-78
2022/06/03 00:32:08;;;;;;;10.25;6.80;;;;;;;8.85;100.00;102210.28;10338777;28;20097;-79
2022/06/03 00:37:31;;;;;;;11.95;7.00;;;;;;;8.76;100.00;102200.53;10339190;28;20042;-78
2022/06/03 00:42:43;;;;;;;12.95;7.13;;;;;;;8.68;100.00;102200.75;10338994;28;20042;-78
2022/06/03 00:48:21;;;;;;;11.80;6.80;;;;;;;8.59;100.00;102194.59;10337326;28;20043;-78
2022/06/03 00:54:06;;;;;;;9.32;6.03;;;;;;;8.56;100.00;102200.53;10335464;28;20045;-77
2022/06/03 00:59:09;;;;;;;11.27;6.38;;;;;;;8.55;100.00;102209.81;10313584;28;20557;-77
2022/06/03 01:04:13;;;;;;;11.68;6.70;;;;;;;8.59;100.00;102204.75;10337333;28;20046;-77
2022/06/03 01:09:31;;;;;;;12.45;8.25;;;;;;;8.61;100.00;102197.16;10338499;28;20062;-78
2022/06/03 01:14:51;;;;;;;11.82;7.82;;;;;;;8.56;100.00;102185.94;10336009;28;20325;-78
2022/06/03 01:20:16;;;;;;;12.48;9.10;;;;;;;8.53;100.00;102184.47;10328917;28;20093;-78
2022/06/03 01:25:29;;;;;;;11.55;7.57;;;;;;;8.46;100.00;102186.38;10294005;28;20050;-78
2022/06/03 01:30:48;;;;;;;12.35;7.70;;;;;;;8.38;100.00;102192.84;10297724;28;20077;-78
2022/06/03 01:36:13;;;;;;;10.98;7.72;;;;;;;8.31;100.00;102182.91;10324450;28;20038;-77
2022/06/03 01:41:19;;;;;;;15.50;8.85;;;;;;;8.13;100.00;102156.91;10334324;28;20038;-78
2022/06/03 01:46:31;;;;;;;11.40;7.37;;;;;;;8.15;100.00;102182.25;10335066;28;20042;-77
2022/06/03 01:51:43;;;;;;;13.25;8.18;;;;;;;8.12;100.00;102182.63;10315372;28;20046;-77
2022/06/03 01:56:44;;;;;;;21.33;8.82;;;;;;;8.13;100.00;102178.84;10298286;28;20038;-78
2022/06/03 02:02:12;;;;;;;13.98;8.93;;;;;;;8.11;100.00;102180.13;10333914;28;20042;-77
2022/06/03 02:07:50;;;;;;;11.88;7.72;;;;;;;8.07;100.00;102174.19;10335314;28;20041;-77
2022/06/03 02:12:56;;;;;;;;;;;;;;;8.05;100.00;102174.38;10317659;28;20390;-77
2022/06/03 02:18:15;;;;;;;12.57;7.70;;;;;;;8.06;100.00;102172.50;10313524;28;19921;-78
2022/06/03 02:23:27;;;;;;;19.95;9.93;;;;;;;8.04;100.00;102166.34;10296455;28;20057;-77
2022/06/03 02:28:33;;;;;;;10.98;8.38;;;;;;;8.08;100.00;102164.91;10335298;28;20109;-77
2022/06/03 02:33:58;;;;;;;14.60;8.98;;;;;;;8.04;100.00;102174.59;10333222;28;20585;-77
2022/06/03 02:39:24;;;;;;;22.55;10.15;;;;;;;8.09;100.00;102166.59;10336517;28;20034;-77
2022/06/03 02:44:49;;;;;;;15.47;9.80;;;;;;;7.81;100.00;102120.97;10319436;28;20097;-77
2022/06/03 02:50:13;;;;;;;15.00;8.25;;;;;;;8.10;100.00;102173.75;10354652;28;20057;-78
2022/06/03 02:55:44;;;;;;;16.98;10.27;;;;;;;8.11;100.00;102172.72;10306489;28;20038;-77
2022/06/03 03:01:10;;;;;;;15.63;9.07;;;;;;;8.08;100.00;102162.16;10327936;28;20074;-77
2022/06/03 03:06:16;;;;;;;15.27;9.02;;;;;;;8.01;100.00;102159.41;10323056;28;20117;-77
2022/06/03 03:11:33;;;;;;;17.95;9.70;;;;;;;7.96;100.00;102156.44;10340329;28;20572;-77
2022/06/03 03:16:53;;;;;;;16.42;9.88;;;;;;;8.00;100.00;102162.34;10340672;28;20038;-77
2022/06/03 03:22:05;;;;;;;18.00;10.18;;;;;;;8.08;100.00;102164.91;10283640;28;20082;-77
2022/06/03 03:27:44;;;;;;;16.90;10.77;;;;;;;8.10;100.00;102149.09;10323982;28;20034;-78
2022/06/03 03:33:08;;;;;;;18.25;10.60;;;;;;;8.13;100.00;102150.59;10331057;28;20142;-77
2022/06/03 03:38:28;;;;;;;15.93;9.98;;;;;;;8.08;100.00;102154.78;10339697;28;20046;-78
2022/06/03 03:43:59;;;;;;;19.95;11.75;;;;;;;8.10;100.00;102157.31;10339757;28;20126;-77
2022/06/03 03:49:21;;;;;;;20.80;12.02;;;;;;;8.17;100.00;102152.69;10283103;28;20463;-78
2022/06/03 03:54:46;;;;;;;19.27;11.75;;;;;;;8.25;100.00;102146.19;10335118;28;20054;-77
2022/06/03 04:00:08;;;;;;;17.33;11.80;;;;;;;8.32;100.00;102157.16;10321355;28;20086;-77
2022/06/03 04:05:30;;;;;;;18.35;10.27;;;;;;;8.41;100.00;102153.19;10299137;28;20050;-77
2022/06/03 04:10:46;;;;;;;16.98;11.00;;;;;;;8.57;100.00;102155.53;10296188;28;20039;-78
2022/06/03 04:16:23;;;;;;;18.35;9.80;;;;;;;8.73;100.00;102154.28;10310016;28;20054;-77
2022/06/03 04:21:28;;;;;;;14.93;9.65;;;;;;;8.85;100.00;102146.28;10322616;28;20066;-77
2022/06/03 04:26:38;;;;;;;20.23;10.00;;;;;;;8.93;100.00;102157.06;10354678;28;20494;-78
2022/06/03 04:32:03;;;;;;;16.40;9.02;;;;;;;9.01;100.00;102148.59;10337850;28;20126;-77
2022/06/03 04:37:29;;;;;;;18.05;9.75;;;;;;;9.11;100.00;102144.56;10337634;28;20128;-78
2022/06/03 04:43:17;;;;;;;16.13;9.57;;;;;;;9.12;100.00;102133.34;10328467;28;20031;-77
2022/06/03 04:48:51;;;;;;;12.48;8.13;;;;;;;9.20;100.00;102141.38;10291739;28;20030;-78
2022/06/03 04:53:54;;;;;;;18.58;9.30;;;;;;;9.25;100.00;102151.72;10338268;28;20057;-78
2022/06/03 04:59:00;;;;;;;11.73;8.00;;;;;;;9.28;100.00;102143.91;10339967;28;20042;-78
2022/06/03 05:04:45;;;;;;;15.70;9.73;;;;;;;9.32;100.00;102144.28;10338714;28;20066;-78
2022/06/03 05:09:51;;;;;;;14.63;8.77;;;;;;;9.43;100.00;102138.16;10350160;28;20093;-77
2022/06/03 05:15:07;;;;;;;13.73;9.07;;;;;;;9.54;100.00;102141.28;10336933;28;20049;-78
2022/06/03 05:20:23;;;;;;;26.02;16.60;;;;;;;9.63;100.00;102143.59;10301516;28;20253;-78
2022/06/03 05:26:09;;;;;;;16.45;8.93;;;;;;;9.78;100.00;102135.06;10296274;28;20039;-77
2022/06/03 05:31:42;;;;;;;13.93;7.53;;;;;;;9.93;100.00;102131.19;10290790;28;20039;-78
2022/06/03 05:37:13;;;;;;;13.73;8.68;;;;;;;10.14;100.00;102136.34;10279072;28;20050;-78
2022/06/03 05:42:49;;;;;;;11.05;7.10;;;;;;;10.36;100.00;102127.81;10294307;28;20150;-78
2022/06/03 05:47:55;;;;;;;11.07;8.05;;;;;;;10.64;100.00;102124.59;10272749;28;20063;-76
2022/06/03 05:53:10;;;;;;;11.88;7.43;;;;;;;10.94;100.00;102113.75;10321947;28;20042;-77
2022/06/03 05:58:14;;;;;;;11.18;7.47;;;;;;;11.36;100.00;102108.44;10331741;28;20094;-76
2022/06/03 06:03:35;;;;;;;12.15;7.22;;;;;;;11.78;100.00;102108.59;10335963;28;20480;-77
2022/06/03 06:09:09;;;;;;;10.32;6.80;;;;;;;12.25;100.00;102107.94;10337344;28;20101;-77
2022/06/03 06:14:17;;;;;;;9.27;5.82;;;;;;;12.65;100.00;102113.69;10279342;28;20049;-77
2022/06/03 06:19:44;;;;;;;7.90;4.85;;;;;;;13.00;100.00;102106.50;10327927;28;20048;-77
2022/06/03 06:24:55;;;;;;;;;;;;;;;13.40;100.00;102109.38;10348446;28;20034;-77
2022/06/03 06:30:18;;;;;;;9.27;5.20;;;;;;;13.83;100.00;102121.06;10294489;28;19981;-78
2022/06/03 06:35:37;;;;;;;6.70;4.78;;;;;;;14.15;100.00;102117.81;10277829;28;20140;-78
2022/06/03 06:40:56;;;;;;;5.18;3.30;;;;;;;14.40;100.00;102125.75;10291515;28;20043;-78
2022/06/03 06:46:26;;;;;;;5.80;2.45;;;;;;;14.54;100.00;102107.72;10294766;28;20169;-78
2022/06/03 06:51:45;;;;;;;4.30;2.50;;;;;;;14.75;100.00;102113.63;10313974;28;20038;-78
2022/06/03 06:57:07;;;;;;;3.83;2.80;;;;;;;14.87;100.00;102093.03;10311452;28;20051;-78
2022/06/03 07:02:13;;;;;;;5.25;2.70;;;;;;;15.22;100.00;102107.72;10275677;28;20376;-79
2022/06/03 07:07:19;;;;;;;;;;;;;;;15.47;100.00;102099.72;10277766;28;20502;-78
2022/06/03 07:12:23;;;;;;;4.57;2.17;;;;;;;15.65;100.00;102089.41;10272780;28;19921;-78
2022/06/03 07:23:07;;;;;;;5.25;2.60;;;;;;;16.11;100.00;102081.63;10314773;28;20060;-78
2022/06/03 07:28:35;;;;;;;4.70;1.83;;;;;;;16.47;100.00;102090.28;10293781;28;20038;-78
2022/06/03 07:33:43;;;;;;;5.47;1.85;;;;;;;16.81;97.91;102079.75;10335936;28;20114;-78
2022/06/03 07:39:02;;;;;;;4.68;2.13;;;;;;;16.83;92.52;102049.72;10330875;28;20031;-77
2022/06/03 07:44:15;;;;;;;4.00;1.40;;;;;;;16.92;93.28;102062.00;10336509;28;20049;-77
2022/06/03 07:49:16;;;;;;;4.38;1.30;;;;;;;17.26;91.10;102064.47;10338210;28;20111;-77
2022/06/03 07:54:26;;;;;;;2.55;1.00;;;;;;;17.41;88.06;102062.84;10311973;28;20045;-79
2022/06/03 07:59:27;;;;;;;1.92;1.00;;;;;;;17.49;82.95;102049.25;10320779;28;20034;-79
2022/06/03 08:04:30;;;;;;;2.80;0.90;;;;;;;17.77;82.57;102052.66;10330544;28;20517;-77
2022/06/03 08:14:49;;;;;;;2.17;1.25;;;;;;;17.99;83.08;102037.72;10339173;28;20047;-77
2022/06/03 08:19:50;;;;;;;3.80;1.13;;;;;;;18.06;82.40;102057.78;10307596;28;20038;-77
2022/06/03 08:24:57;;;;;;;2.25;0.90;;;;;;;18.10;83.33;102014.31;10318111;28;20054;-77
2022/06/03 08:30:10;;;;;;;3.30;1.35;;;;;;;18.57;81.50;102052.25;10328405;28;20058;-77
2022/06/03 08:35:15;;;;;;;4.05;1.13;;;;;;;18.74;78.36;102038.81;10335014;28;20038;-77
2022/06/03 08:40:18;;;;;;;2.38;1.33;;;;;;;18.92;78.69;102040.22;10319733;28;20046;-77
2022/06/03 08:45:40;;;;;;;3.40;1.33;;;;;;;19.14;77.59;102036.25;10336491;28;20039;-77
2022/06/03 08:50:47;;;;;;;3.97;1.15;;;;;;;19.36;77.41;102039.50;10320090;28;20038;-77
2022/06/03 08:56:08;;;;;;;3.58;1.15;;;;;;;19.44;77.39;102042.84;10337474;28;20050;-77
2022/06/03 09:01:11;;;;;;;3.60;1.73;;;;;;;19.42;77.57;102042.31;10314029;28;20050;-77
2022/06/03 09:06:40;;;;;;;2.97;1.10;;;;;;;19.69;77.80;102031.53;10298050;28;20045;-77
2022/06/03 09:11:53;;;;;;;5.82;1.25;;;;;;;19.95;76.84;102034.22;10302201;28;20046;-77
2022/06/03 09:17:05;;;;;;;2.25;0.85;;;;;;;20.18;76.47;102013.09;10308167;28;20047;-76
2022/06/03 09:22:13;;;;;;;4.13;1.30;;;;;;;20.38;74.28;102008.44;10282620;28;20106;-79
2022/06/03 09:27:16;;;;;;;2.08;1.00;;;;;;;20.36;74.92;102009.56;10318997;28;20548;-77
2022/06/03 09:32:17;;;;;;;1.95;1.08;;;;;;;20.46;72.68;101999.41;10336600;28;20046;-77
2022/06/03 09:37:27;;;;;;;4.45;1.30;;;;;;;20.62;74.15;102020.56;10302756;28;20107;-76
2022/06/03 09:42:27;;;;;;;3.55;1.25;;;;;;;20.82;71.65;101987.91;10295172;28;20038;-77
2022/06/03 09:47:28;;;;;;;2.40;1.13;;;;;;;21.05;72.86;101992.66;10296545;28;20039;-77
2022/06/03 09:52:28;;;;;;;2.25;1.27;;;;;;;21.06;69.38;101969.13;10294150;28;20039;-77
2022/06/03 09:57:29;;;;;;;2.28;1.33;;;;;;;21.15;69.87;101977.72;10294766;28;20070;-77
2022/06/03 10:02:30;;;;;;;1.35;1.00;;;;;;;21.14;68.36;101976.84;10297406;28;20138;-78
2022/06/03 10:07:30;;;;;;;4.72;1.83;;;;;;;21.27;67.74;101966.06;10285381;28;20031;-77
2022/06/03 10:12:49;;;;;;;2.88;1.20;;;;;;;21.56;67.50;101972.41;10298281;28;20088;-77
2022/06/03 10:17:50;;;;;;;1.58;1.20;;;;;;;21.55;66.38;101979.16;10294524;28;20046;-78
2022/06/03 10:22:50;;;;;;;3.22;1.40;;;;;;;21.78;65.89;101948.53;10333392;28;20046;-77
2022/06/03 10:27:51;;;;;;;4.70;1.25;;;;;;;22.01;63.18;101971.19;10332825;28;20050;-77
2022/06/03 10:32:51;;;;;;;3.08;1.58;;;;;;;22.26;64.43;101975.56;10301938;28;20042;-78
2022/06/03 10:37:59;;;;;;;3.28;1.40;;;;;;;22.33;63.15;101962.78;10335844;28;20057;-77
2022/06/03 10:43:00;;;;;;;3.15;1.10;;;;;;;22.66;64.58;101959.94;10335567;28;20497;-78
2022/06/03 10:48:09;;;;;;;3.08;1.00;;;;;;;22.73;63.42;101946.31;10275931;28;20077;-77
2022/06/03 11:04:03;;;;;;;2.90;1.10;;;;;;;23.30;58.22;101912.31;10278981;28;20053;-78
2022/06/03 11:09:05;;;;;;;1.52;1.25;;;;;;;23.50;57.81;101916.63;10301835;28;20035;-77
2022/06/03 11:14:27;;;;;;;1.45;0.90;;;;;;;23.28;58.26;101913.78;10285112;28;20078;-78
2022/06/03 11:19:45;;;;;;;2.63;1.17;;;;;;;23.50;58.80;101899.75;10301520;28;20077;-77
2022/06/03 11:25:03;;;;;;;1.77;0.98;;;;;;;23.64;57.59;101898.88;10300413;28;20061;-77
2022/06/03 11:30:15;;;;;;;2.03;1.13;;;;;;;23.72;56.60;101884.03;10301613;28;20077;-77
2022/06/03 11:35:29;;;;;;;2.88;0.82;;;;;;;23.99;57.36;101890.72;10285188;28;20558;-78
2022/06/03 11:40:35;;;;;;;4.90;1.20;;;;;;;23.77;55.97;101875.50;10283698;28;20127;-77
2022/06/03 11:45:39;;;;;;;3.65;0.75;;;;;;;24.08;55.92;101866.28;10283443;28;20050;-78
2022/06/03 11:50:41;;;;;;;4.43;1.25;;;;;;;24.60;53.55;101858.13;10327490;28;20038;-77
2022/06/03 11:55:41;;;;;;;6.93;1.02;;;;;;;25.26;54.46;101865.69;10318227;28;20038;-76
2022/06/03 12:01:04;;;;;;;1.63;1.10;;;;;;;25.96;50.30;101836.31;10310934;28;20034;-77
2022/06/03 12:06:11;;;;;;;2.42;1.10;;;;;;;26.82;52.15;101853.22;10324677;28;20050;-78
2022/06/03 12:16:56;;;;;;;1.77;1.25;;;;;;;27.38;48.81;101844.53;10334939;28;20061;-78
2022/06/03 12:21:57;;;;;;;;;;;;;;;27.15;46.63;101841.19;10324416;28;20034;-77
2022/06/03 12:26:57;;;;;;;1.70;1.10;;;;;;;26.93;46.77;101834.69;10321863;28;19922;-78
2022/06/03 12:32:07;;;;;;;2.78;1.17;;;;;;;27.12;47.46;101842.72;10336693;28;20042;-78
2022/06/03 12:37:40;;;;;;;2.50;1.20;;;;;;;24.65;48.56;101755.75;10314363;28;20034;-77
2022/06/03 12:42:41;;;;;;;2.03;1.10;;;;;;;26.02;50.39;101861.53;10322681;28;20093;-77
2022/06/03 12:47:46;;;;;;;2.72;1.05;;;;;;;27.04;47.80;101840.78;10317495;28;20247;-77
2022/06/03 12:52:46;;;;;;;2.78;1.23;;;;;;;26.93;47.17;101845.16;10299320;28;20046;-78
2022/06/03 12:57:54;;;;;;;1.92;0.90;;;;;;;26.45;47.54;101818.19;10300671;28;20577;-77
2022/06/03 13:02:56;;;;;;;2.50;0.98;;;;;;;25.95;48.85;101854.41;10300472;28;20055;-77
2022/06/03 13:08:02;;;;;;;2.38;0.85;;;;;;;26.47;44.84;101832.78;10326774;28;20045;-77
2022/06/03 13:13:24;;;;;;;3.55;0.75;;;;;;;25.85;46.42;101849.06;10328009;28;20046;-77
2022/06/03 13:18:39;;;;;;;2.42;0.88;;;;;;;26.54;47.01;101844.38;10304346;28;20098;-77
2022/06/03 13:23:42;;;;;;;3.67;1.57;;;;;;;27.03;44.81;101827.81;10330851;28;20070;-77
2022/06/03 13:28:43;;;;;;;5.32;1.02;;;;;;;27.23;42.53;101819.72;10306445;28;20042;-78
2022/06/03 13:33:59;;;;;;;3.17;0.98;;;;;;;27.35;44.34;101839.56;10308189;28;20053;-77
2022/06/03 13:39:00;;;;;;;2.58;0.60;;;;;;;27.19;42.03;101808.25;10325061;28;20038;-77
2022/06/03 13:44:09;;;;;;;2.63;1.00;;;;;;;27.52;42.28;101805.47;10290247;28;20046;-78
2022/06/03 13:49:24;;;;;;;2.80;0.90;;;;;;;27.47;40.75;101800.03;10282606;28;20038;-78
2022/06/03 13:54:39;;;;;;;2.65;1.05;;;;;;;27.38;40.39;101811.41;10300797;28;20472;-78
2022/06/03 13:59:41;;;;;;;5.53;0.90;;;;;;;27.51;40.80;101803.84;10316225;28;20770;-78
2022/06/03 14:04:56;;;;;;;2.25;0.70;;;;;;;28.18;39.54;101790.44;10315885;28;20557;-77
2022/06/03 14:10:02;;;;;;;1.13;0.70;;;;;;;28.33;40.05;101814.38;10318214;28;20038;-78
2022/06/03 14:15:02;;;;;;;;;;;;;;;28.55;40.27;101815.97;10316828;28;20049;-77
2022/06/03 14:20:14;;;;;;;2.30;0.90;;;;;;;28.63;39.70;101811.34;10335006;28;19922;-77
2022/06/03 14:25:17;;;;;;;5.00;0.73;;;;;;;28.58;39.83;101803.06;10327892;28;20083;-77
2022/06/03 14:30:49;;;;;;;2.83;0.75;;;;;;;28.26;39.72;101801.97;10296229;28;20038;-76
2022/06/03 14:35:54;;;;;;;2.28;0.70;;;;;;;28.45;40.10;101804.25;10312357;28;20085;-77
2022/06/03 14:40:54;;;;;;;1.65;0.65;;;;;;;27.45;40.71;101793.91;10295300;28;20053;-77
2022/06/03 14:46:03;;;;;;;1.60;0.65;;;;;;;27.74;42.13;101804.25;10296534;28;20044;-76
2022/06/03 14:51:10;;;;;;;2.70;1.27;;;;;;;27.18;40.41;101793.28;10341293;28;20053;-77
2022/06/03 14:56:51;;;;;;;3.08;0.70;;;;;;;26.83;41.67;101806.00;10342091;28;20038;-77
2022/06/03 15:02:03;;;;;;;3.75;0.95;;;;;;;27.12;42.22;101786.19;10337821;28;20051;-78
2022/06/03 15:07:05;;;;;;;2.88;0.80;;;;;;;26.87;41.16;101801.34;10285485;28;20140;-76
2022/06/03 15:12:27;;;;;;;3.05;0.60;;;;;;;26.92;40.98;101816.09;10285025;28;20038;-77
2022/06/03 15:17:35;;;;;;;1.52;0.50;;;;;;;27.26;42.17;101808.53;10302066;28;20142;-77
2022/06/03 15:22:48;;;;;;;3.53;0.80;;;;;;;27.33;42.29;101808.81;10268556;28;20059;-78
2022/06/03 15:27:50;;;;;;;7.25;0.98;;;;;;;27.14;43.09;101831.91;10317860;28;20481;-78
2022/06/03 15:32:51;;;;;;;2.55;0.68;;;;;;;27.01;40.92;101807.53;10319938;28;20054;-78
2022/06/03 15:37:52;;;;;;;2.50;0.60;;;;;;;26.20;41.94;101755.88;10282639;28;20399;-78
2022/06/03 15:42:53;;;;;;;2.17;0.60;;;;;;;25.29;41.63;101800.22;10300623;28;20086;-77
2022/06/03 15:47:55;;;;;;;0.73;0.50;;;;;;;25.44;43.58;101839.19;10267602;28;20030;-78
2022/06/03 15:52:56;;;;;;;5.70;0.82;;;;;;;25.67;43.94;101819.25;10280898;28;20565;-78
2022/06/03 15:58:11;;;;;;;2.95;0.75;;;;;;;26.59;42.10;101829.28;10248164;28;20065;-79
2022/06/03 16:03:22;;;;;;;1.07;0.57;;;;;;;26.30;43.55;101831.72;10266457;28;20464;-77
2022/06/03 16:08:38;;;;;;;2.33;0.85;;;;;;;25.89;42.00;101816.25;10264585;28;20038;-78
2022/06/03 16:13:49;;;;;;;1.90;0.70;;;;;;;26.00;43.57;101825.16;10295265;28;20049;-78
2022/06/03 16:19:11;;;;;;;1.15;0.70;;;;;;;24.47;43.10;101816.78;10234972;28;20573;-77
2022/06/03 16:24:20;;;;;;;1.65;0.80;;;;;;;24.22;45.48;101832.41;10273920;28;20039;-77
2022/06/03 16:29:39;;;;;;;3.03;1.40;;;;;;;23.52;47.14;101860.06;10254089;28;20079;-77
2022/06/03 16:35:18;;;;;;;6.20;1.70;;;;;;;22.82;50.86;101879.06;10271573;28;20062;-76
2022/06/03 16:40:30;;;;;;;4.60;1.48;;;;;;;22.65;52.92;101890.09;10293900;28;20089;-77
2022/06/03 16:51:01;;;;;;;5.82;1.25;;;;;;;21.22;54.40;101882.13;10292523;28;20054;-76
2022/06/03 16:56:02;;;;;;;6.10;1.17;;;;;;;20.75;53.96;101890.28;10278902;28;20046;-79
2022/06/03 17:01:05;;;;;;;3.08;1.15;;;;;;;19.89;56.25;101890.88;10255316;28;20099;-76
2022/06/03 17:06:07;;;;;;;4.10;1.02;;;;;;;19.75;58.63;101906.66;10275932;28;20116;-77
2022/06/03 17:11:16;;;;;;;3.50;1.20;;;;;;;19.31;60.57;101908.31;10290706;28;20069;-77
2022/06/03 17:16:17;;;;;;;3.42;1.00;;;;;;;19.03;61.57;101900.66;10254098;28;20043;-77
2022/06/03 17:21:55;;;;;;;6.60;1.15;;;;;;;18.87;62.50;101923.06;10228143;28;20039;-77
2022/06/03 17:27:27;;;;;;;3.58;1.10;;;;;;;18.86;63.03;101923.34;10262320;28;20043;-78
2022/06/03 17:32:32;;;;;;;2.92;1.27;;;;;;;18.44;58.51;101902.22;10241217;28;20106;-78
2022/06/03 17:38:06;;;;;;;3.03;0.90;;;;;;;18.11;63.53;101930.44;10238333;28;20035;-77
2022/06/03 17:43:22;;;;;;;3.35;0.93;;;;;;;18.05;67.22;101948.28;10273496;28;20031;-77
2022/06/03 17:48:45;;;;;;;3.63;1.10;;;;;;;17.77;69.22;101946.81;10248115;28;20439;-77
2022/06/03 17:59:10;;;;;;;3.13;1.13;;;;;;;17.51;73.97;101959.88;10237003;28;20047;-77
2022/06/03 18:04:16;;;;;;;4.40;1.42;;;;;;;17.34;77.64;101968.44;10290359;28;20097;-78
2022/06/03 18:09:25;;;;;;;2.88;1.60;;;;;;;17.28;79.89;101963.97;10252234;28;20043;-78
2022/06/03 18:14:27;;;;;;;4.50;1.52;;;;;;;16.96;80.88;101964.97;10272945;28;20042;-77
2022/06/03 18:19:31;;;;;;;4.07;1.50;;;;;;;16.68;83.20;101953.13;10277425;28;20062;-77
2022/06/03 18:24:43;;;;;;;3.30;1.58;;;;;;;16.65;83.53;101964.75;10237253;28;20448;-77
2022/06/03 18:30:25;;;;;;;7.32;1.35;;;;;;;16.40;86.05;101970.16;10270519;28;20107;-77
2022/06/03 18:35:54;;;;;;;3.90;1.67;;;;;;;16.12;88.72;101967.47;10243645;28;20049;-77
2022/06/03 18:41:08;;;;;;;7.80;1.98;;;;;;;15.97;92.08;101969.25;10270569;28;20042;-77
2022/06/03 18:46:16;;;;;;;5.28;1.50;;;;;;;15.66;94.98;101921.72;10251366;28;20047;-77
2022/06/03 18:52:00;;;;;;;3.38;2.13;;;;;;;15.90;97.52;101969.47;10264139;28;20614;-77
2022/06/03 18:57:05;;;;;;;3.15;1.65;;;;;;;15.71;99.38;101974.53;10266638;28;20051;-77
2022/06/03 19:02:43;;;;;;;7.85;2.78;;;;;;;15.59;100.00;101980.25;10265550;28;20530;-77
2022/06/03 19:07:44;;;;;;;5.30;1.95;;;;;;;15.50;100.00;101976.25;10253246;28;20044;-77
2022/06/03 19:13:07;;;;;;;3.80;2.00;;;;;;;15.27;100.00;101977.38;10274125;28;20035;-77
2022/06/03 19:18:44;;;;;;;5.82;2.13;;;;;;;15.01;100.00;101985.38;10261627;28;20091;-77
2022/06/03 19:24:00;;;;;;;8.40;2.67;;;;;;;14.80;100.00;101991.72;10273509;28;20035;-77
2022/06/03 19:29:11;;;;;;;5.32;2.65;;;;;;;14.60;100.00;101993.13;10298889;28;20039;-77
2022/06/03 19:34:18;;;;;;;4.35;2.40;;;;;;;14.45;100.00;101990.06;10254606;28;20045;-77
2022/06/03 19:39:36;;;;;;;3.83;2.50;;;;;;;14.19;100.00;101995.19;10265751;28;20139;-77
2022/06/03 19:45:07;;;;;;;5.40;3.03;;;;;;;14.03;100.00;101999.63;10243979;28;20073;-77
2022/06/03 19:56:19;;;;;;;5.00;3.20;;;;;;;13.89;100.00;102025.94;10300293;28;20047;-76
2022/06/03 20:01:29;;;;;;;5.05;2.80;;;;;;;13.71;100.00;102024.25;10269542;28;20542;-77
2022/06/03 20:06:34;;;;;;;3.50;2.53;;;;;;;13.65;100.00;102028.84;10293550;28;20106;-77
2022/06/03 20:17:02;;;;;;;9.43;3.72;;;;;;;13.28;100.00;102031.91;10280988;28;20443;-76
2022/06/03 20:22:10;;;;;;;5.95;3.17;;;;;;;13.04;100.00;102016.47;10282221;28;20041;-77
2022/06/03 20:27:35;;;;;;;9.35;3.78;;;;;;;13.05;100.00;102043.88;10273941;28;20035;-76
2022/06/03 20:32:36;;;;;;;8.73;4.20;;;;;;;12.98;100.00;102047.84;10276818;28;20042;-77
2022/06/03 20:37:43;;;;;;;9.35;4.15;;;;;;;12.84;100.00;102055.56;10252688;28;20039;-78
2022/06/03 20:42:47;;;;;;;6.82;4.03;;;;;;;12.80;100.00;102070.94;10259077;28;20472;-77
2022/06/03 20:47:56;;;;;;;9.25;4.78;;;;;;;12.64;100.00;102073.31;10291732;28;20070;-76
2022/06/03 20:53:03;;;;;;;8.48;4.50;;;;;;;12.49;100.00;102062.75;10273512;28;20044;-76
2022/06/03 20:58:25;;;;;;;;;;;;;;;12.47;100.00;102078.72;10275686;28;20046;-76
2022/06/03 21:14:07;;;;;;;12.93;6.38;;;;;;;12.15;100.00;102086.41;10241186;28;20506;-77
2022/06/03 21:19:07;;;;;;;11.13;6.40;;;;;;;12.15;100.00;102097.47;10245031;28;20065;-77
2022/06/03 21:24:29;;;;;;;8.32;5.32;;;;;;;12.09;100.00;102099.28;10237467;28;20059;-77
2022/06/03 21:29:29;;;;;;;10.90;5.88;;;;;;;11.99;100.00;102109.16;10295508;28;20094;-77
2022/06/03 21:34:58;;;;;;;11.07;5.32;;;;;;;11.98;100.00;102119.38;10300274;28;20081;-77
2022/06/03 21:40:23;;;;;;;7.63;5.68;;;;;;;11.80;100.00;102100.91;10297591;28;20058;-77
2022/06/03 21:45:43;;;;;;;12.68;6.00;;;;;;;11.81;100.00;102099.00;10290965;28;20118;-77
2022/06/03 21:51:06;;;;;;;14.30;6.70;;;;;;;11.81;100.00;102119.16;10234746;28;20471;-77
2022/06/03 21:56:13;;;;;;;13.32;7.53;;;;;;;11.77;100.00;102133.63;10306759;28;20046;-76
2022/06/03 22:01:14;;;;;;;13.00;7.07;;;;;;;11.67;100.00;102128.66;10278832;28;20082;-76
2022/06/03 22:06:14;;;;;;;11.27;7.45;;;;;;;11.57;100.00;102142.16;10288790;28;20059;-76
2022/06/03 22:16:34;;;;;;;16.13;7.72;;;;;;;11.52;100.00;102140.91;10288212;28;20039;-76
2022/06/03 22:21:35;;;;;;;13.10;7.60;;;;;;;11.37;100.00;102129.44;10262503;28;20051;-76
2022/06/03 22:27:05;;;;;;;17.95;8.02;;;;;;;11.40;100.00;102140.00;10268441;28;20078;-76
2022/06/03 22:32:14;;;;;;;13.63;8.35;;;;;;;11.36;100.00;102138.78;10271705;28;20047;-78
2022/06/03 22:43:03;;;;;;;12.65;7.57;;;;;;;11.16;100.00;102155.50;10253155;28;20040;-77
2022/06/03 22:48:04;;;;;;;23.17;8.18;;;;;;;11.18;100.00;102163.56;10234878;28;20057;-76
2022/06/03 22:53:04;;;;;;;11.10;7.15;;;;;;;11.18;100.00;102166.31;10235126;28;20040;-76
2022/06/03 22:58:05;;;;;;;13.85;6.57;;;;;;;11.20;100.00;102165.00;10278913;28;20040;-76
2022/06/03 23:03:05;;;;;;;13.40;6.70;;;;;;;11.07;100.00;102146.69;10264707;28;20046;-79
2022/06/03 23:08:06;;;;;;;10.88;5.45;;;;;;;11.10;100.00;102162.78;10244086;28;20142;-76
2022/06/03 23:13:07;;;;;;;9.38;5.82;;;;;;;11.07;100.00;102163.22;10257566;28;20047;-80
2022/06/03 23:18:08;;;;;;;14.93;5.93;;;;;;;11.07;100.00;102163.22;10241584;28;20039;-77
2022/06/03 23:23:20;;;;;;;10.52;5.95;;;;;;;10.94;100.00;102152.34;10200461;28;20040;-75
2022/06/03 23:28:21;;;;;;;10.63;6.57;;;;;;;10.99;100.00;102160.75;10263921;28;20050;-79
2022/06/03 23:33:22;;;;;;;14.93;6.88;;;;;;;10.97;100.00;102179.44;10266364;28;20125;-76
2022/06/03 23:38:22;;;;;;;16.50;7.32;;;;;;;11.02;100.00;102187.03;10281610;28;20034;-77
2022/06/03 23:48:43;;;;;;;14.13;7.65;;;;;;;10.93;100.00;102166.34;10282629;28;20041;-76
2022/06/03 23:53:43;;;;;;;12.45;6.97;;;;;;;10.83;100.00;102139.28;10248475;28;20046;-76
2022/06/03 23:58:44;;;;;;;16.45;7.30;;;;;;;10.82;100.00;102143.13;10280210;28;20039;-76
